Time;durP1;ratioP1;P1;durP2;ratioP2;P2;SDS_P1;SDS_P2;PMS_P1;PMS_P2;Temp;Humidity;BMP_temperature;BMP_pressure;BME280_temperature;BME280_humidity;BME280_pressure;Samples;Min_cycle;Max_cycle;Signal;HPM_P1;HPM_P2
2022/06/07 00:00:05;;;;;;;7.10;5.10;;;;;;;;;;5050948;28;20112;-68
2022/06/07 00:02:30;;;;;;;9.25;5.63;;;;;;;;;;5054025;28;20392;-68
2022/06/07 00:04:57;;;;;;;11.30;5.13;;;;;;;;;;5054129;28;20374;-68
2022/06/07 00:07:25;;;;;;;8.85;6.13;;;;;;;;;;5054167;28;20017;-68
2022/06/07 00:09:51;;;;;;;8.05;5.72;;;;;;;;;;5054183;28;20330;-68
2022/06/07 00:12:17;;;;;;;11.35;5.57;;;;;;;;;;5053528;28;20104;-68
2022/06/07 00:14:44;;;;;;;8.15;5.50;;;;;;;;;;5053974;28;20090;-68
2022/06/07 00:17:09;;;;;;;8.73;6.15;;;;;;;;;;5054006;28;20017;-68
2022/06/07 00:19:35;;;;;;;24.20;16.15;;;;;;;;;;5051132;28;20033;-68
2022/06/07 00:22:02;;;;;;;16.05;13.30;;;;;;;;;;5053862;28;20452;-68
2022/06/07 00:24:28;;;;;;;21.75;14.73;;;;;;;;;;5054100;28;20036;-68
2022/06/07 00:26:54;;;;;;;18.75;13.70;;;;;;;;;;5052102;28;20035;-68
2022/06/07 00:29:21;;;;;;;18.88;13.98;;;;;;;;;;5052556;28;20021;-68
2022/06/07 00:31:47;;;;;;;17.20;12.25;;;;;;;;;;5054924;28;20037;-68
2022/06/07 00:34:13;;;;;;;17.55;12.65;;;;;;;;;;5052657;28;20082;-68
2022/06/07 00:36:40;;;;;;;17.58;12.75;;;;;;;;;;5052644;28;20025;-68
2022/06/07 00:39:06;;;;;;;18.88;13.25;;;;;;;;;;5049621;28;20397;-68
2022/06/07 00:41:32;;;;;;;16.42;12.73;;;;;;;;;;5052219;28;20098;-67
2022/06/07 00:44:25;;;;;;;19.10;12.90;;;;;;;;;;5052364;28;20074;-68
2022/06/07 00:47:11;;;;;;;20.92;13.98;;;;;;;;;;5051885;28;20127;-68
2022/06/07 00:49:49;;;;;;;16.77;11.15;;;;;;;;;;5049903;28;20390;-68
2022/06/07 00:52:18;;;;;;;15.50;10.52;;;;;;;;;;5049679;28;20342;-67
2022/06/07 00:54:44;;;;;;;13.27;8.27;;;;;;;;;;5052084;28;20024;-68
2022/06/07 00:57:10;;;;;;;13.50;9.73;;;;;;;;;;5052259;28;20240;-68
2022/06/07 00:59:37;;;;;;;14.35;9.20;;;;;;;;;;5052622;28;20100;-68
2022/06/07 01:02:03;;;;;;;10.98;8.43;;;;;;;;;;5051265;28;20135;-67
2022/06/07 01:04:29;;;;;;;14.73;8.20;;;;;;;;;;5052783;28;20434;-68
2022/06/07 01:12:24;;;;;;;14.05;7.60;;;;;;;;;;5052298;28;20040;-68
2022/06/07 01:14:50;;;;;;;9.95;6.90;;;;;;;;;;5052680;28;20032;-68
2022/06/07 01:17:16;;;;;;;11.02;6.65;;;;;;;;;;5052194;28;20052;-68
2022/06/07 01:19:41;;;;;;;11.38;6.95;;;;;;;;;;5052068;28;20489;-68
2022/06/07 01:22:07;;;;;;;11.50;7.07;;;;;;;;;;5052972;28;20479;-68
2022/06/07 01:24:33;;;;;;;10.52;6.88;;;;;;;;;;5059113;28;20049;-68
2022/06/07 01:26:59;;;;;;;9.18;6.88;;;;;;;;;;5052118;28;20037;-67
2022/06/07 01:29:25;;;;;;;10.70;7.30;;;;;;;;;;5052124;28;20024;-67
2022/06/07 01:31:50;;;;;;;11.60;7.45;;;;;;;;;;5051864;28;20394;-68
2022/06/07 01:34:16;;;;;;;9.23;7.10;;;;;;;;;;5051990;28;20037;-68
2022/06/07 01:36:42;;;;;;;10.60;7.05;;;;;;;;;;5052067;28;20143;-68
2022/06/07 01:41:54;;;;;;;9.95;6.30;;;;;;;;;;5052075;28;20565;-67
2022/06/07 01:44:29;;;;;;;10.50;6.53;;;;;;;;;;5051885;28;20083;-68
2022/06/07 01:46:56;;;;;;;11.80;6.40;;;;;;;;;;5052199;28;20057;-68
2022/06/07 01:49:23;;;;;;;13.75;6.70;;;;;;;;;;5051755;28;20452;-67
2022/06/07 01:51:51;;;;;;;8.40;6.30;;;;;;;;;;5051183;28;20525;-68
2022/06/07 01:54:17;;;;;;;9.57;6.63;;;;;;;;;;5051808;28;20471;-68
2022/06/07 01:56:42;;;;;;;8.95;6.38;;;;;;;;;;5051677;28;20017;-68
2022/06/07 01:59:09;;;;;;;8.90;6.15;;;;;;;;;;5051714;28;20032;-68
2022/06/07 02:01:36;;;;;;;7.90;5.70;;;;;;;;;;5051605;28;20024;-67
2022/06/07 02:04:02;;;;;;;8.85;5.97;;;;;;;;;;5051389;28;20032;-68
2022/06/07 02:06:28;;;;;;;8.07;5.80;;;;;;;;;;5051371;28;20025;-68
2022/06/07 02:08:54;;;;;;;7.90;5.65;;;;;;;;;;5051477;28;20507;-67
2022/06/07 02:11:22;;;;;;;8.88;6.68;;;;;;;;;;5051414;28;20021;-68
2022/06/07 02:13:48;;;;;;;8.45;6.20;;;;;;;;;;5051335;28;20029;-67
2022/06/07 02:16:16;;;;;;;9.20;6.32;;;;;;;;;;5051480;28;20032;-68
2022/06/07 02:18:42;;;;;;;8.85;6.63;;;;;;;;;;5051324;28;20100;-68
2022/06/07 02:21:09;;;;;;;9.98;6.38;;;;;;;;;;5051238;28;20517;-68
2022/06/07 02:23:36;;;;;;;8.70;6.85;;;;;;;;;;5051829;28;20067;-68
2022/06/07 02:26:13;;;;;;;10.80;7.00;;;;;;;;;;5051550;28;20051;-68
2022/06/07 02:28:41;;;;;;;11.10;6.97;;;;;;;;;;5051901;28;20028;-68
2022/06/07 02:31:09;;;;;;;11.85;7.05;;;;;;;;;;5051798;28;20120;-67
2022/06/07 02:33:37;;;;;;;20.42;7.57;;;;;;;;;;5051738;28;20061;-68
2022/06/07 02:36:05;;;;;;;21.63;7.40;;;;;;;;;;5051642;28;20474;-67
2022/06/07 02:38:31;;;;;;;17.30;7.30;;;;;;;;;;5052105;28;20063;-68
2022/06/07 02:40:57;;;;;;;20.15;7.55;;;;;;;;;;5051930;28;20064;-67
2022/06/07 02:43:23;;;;;;;41.38;7.88;;;;;;;;;;5051539;28;20466;-68
2022/06/07 02:45:48;;;;;;;36.78;8.35;;;;;;;;;;5051091;28;20025;-67
2022/06/07 02:48:14;;;;;;;39.65;7.22;;;;;;;;;;5051194;28;20021;-68
2022/06/07 02:50:40;;;;;;;72.18;7.03;;;;;;;;;;5051911;28;20024;-68
2022/06/07 02:53:06;;;;;;;47.80;6.55;;;;;;;;;;5055170;28;20168;-67
2022/06/07 02:55:31;;;;;;;76.22;7.57;;;;;;;;;;5055480;28;20069;-68
2022/06/07 02:57:58;;;;;;;52.17;7.78;;;;;;;;;;5055261;28;20378;-68
2022/06/07 03:00:24;;;;;;;29.10;7.32;;;;;;;;;;5055598;28;20056;-68
2022/06/07 03:02:50;;;;;;;41.28;7.03;;;;;;;;;;5055725;28;20071;-68
2022/06/07 03:05:15;;;;;;;37.58;6.50;;;;;;;;;;5055321;28;20024;-67
2022/06/07 03:07:41;;;;;;;12.48;7.63;;;;;;;;;;5055414;28;20382;-68
2022/06/07 03:10:09;;;;;;;16.17;7.35;;;;;;;;;;5055366;28;20021;-68
2022/06/07 03:12:35;;;;;;;28.92;8.45;;;;;;;;;;5054656;28;20036;-68
2022/06/07 03:15:01;;;;;;;14.63;7.40;;;;;;;;;;5054775;28;20111;-68
2022/06/07 03:17:26;;;;;;;13.75;7.38;;;;;;;;;;5054490;28;20021;-68
2022/06/07 03:19:52;;;;;;;12.90;7.25;;;;;;;;;;5054174;28;20386;-68
2022/06/07 03:22:18;;;;;;;56.80;8.88;;;;;;;;;;5055089;28;20375;-68
2022/06/07 03:24:44;;;;;;;15.18;8.40;;;;;;;;;;5054398;28;20049;-68
2022/06/07 03:27:11;;;;;;;22.20;7.22;;;;;;;;;;5054782;28;20442;-68
2022/06/07 03:29:37;;;;;;;16.38;7.38;;;;;;;;;;5054496;28;20037;-68
2022/06/07 03:32:04;;;;;;;23.58;8.13;;;;;;;;;;5054322;28;20025;-68
2022/06/07 03:34:29;;;;;;;36.38;7.55;;;;;;;;;;5054194;28;20025;-69
2022/06/07 03:36:55;;;;;;;11.02;7.10;;;;;;;;;;5054573;28;20031;-68
2022/06/07 03:39:21;;;;;;;27.45;7.05;;;;;;;;;;5054919;28;20139;-68
2022/06/07 03:41:46;;;;;;;30.83;7.55;;;;;;;;;;5054642;28;20037;-69
2022/06/07 03:44:12;;;;;;;16.17;6.43;;;;;;;;;;5054872;28;20112;-69
2022/06/07 03:46:42;;;;;;;32.95;7.07;;;;;;;;;;5054704;28;20025;-68
2022/06/07 03:49:07;;;;;;;23.30;8.10;;;;;;;;;;5054546;28;20036;-69
2022/06/07 03:51:33;;;;;;;11.93;7.60;;;;;;;;;;5053189;28;20033;-68
2022/06/07 03:53:59;;;;;;;28.40;7.68;;;;;;;;;;5054538;28;20032;-68
2022/06/07 03:56:24;;;;;;;17.17;7.40;;;;;;;;;;5054398;28;20095;-68
2022/06/07 03:58:51;;;;;;;14.63;7.28;;;;;;;;;;5052631;28;20104;-68
2022/06/07 04:01:20;;;;;;;13.18;7.70;;;;;;;;;;5053625;28;20025;-68
2022/06/07 04:03:47;;;;;;;10.70;7.72;;;;;;;;;;5053543;28;20025;-68
2022/06/07 04:06:31;;;;;;;21.35;9.70;;;;;;;;;;5053868;28;20025;-68
2022/06/07 04:08:57;;;;;;;17.05;8.23;;;;;;;;;;5054270;28;20021;-69
2022/06/07 04:11:24;;;;;;;13.60;8.68;;;;;;;;;;5054161;28;20025;-69
2022/06/07 04:13:52;;;;;;;12.30;8.60;;;;;;;;;;5053517;28;20072;-68
2022/06/07 04:16:20;;;;;;;12.35;8.05;;;;;;;;;;5053505;28;20021;-68
2022/06/07 04:18:46;;;;;;;13.55;8.88;;;;;;;;;;5053082;28;20489;-68
2022/06/07 04:21:13;;;;;;;13.65;8.60;;;;;;;;;;5053232;28;20037;-68
2022/06/07 04:23:39;;;;;;;12.68;8.30;;;;;;;;;;5053839;28;20071;-69
2022/06/07 04:26:10;;;;;;;13.88;8.80;;;;;;;;;;5054045;28;20060;-68
2022/06/07 04:28:36;;;;;;;14.50;8.20;;;;;;;;;;5053972;28;20017;-68
2022/06/07 04:31:02;;;;;;;12.10;8.68;;;;;;;;;;5053850;28;20028;-68
2022/06/07 04:33:27;;;;;;;12.95;8.73;;;;;;;;;;5053570;28;20033;-68
2022/06/07 04:35:53;;;;;;;12.45;8.73;;;;;;;;;;5053804;28;20359;-68
2022/06/07 04:38:19;;;;;;;10.80;7.93;;;;;;;;;;5053756;28;20112;-68
2022/06/07 04:40:44;;;;;;;12.35;8.25;;;;;;;;;;5053695;28;20025;-68
2022/06/07 04:43:11;;;;;;;13.68;8.85;;;;;;;;;;5053309;28;20033;-68
2022/06/07 04:45:39;;;;;;;10.43;8.05;;;;;;;;;;5053209;28;20025;-67
2022/06/07 04:48:10;;;;;;;17.90;8.68;;;;;;;;;;5052720;28;20432;-68
2022/06/07 04:50:36;;;;;;;15.45;9.02;;;;;;;;;;5052727;28;20017;-68
2022/06/07 04:53:01;;;;;;;13.27;9.20;;;;;;;;;;5052699;28;20485;-68
2022/06/07 04:55:27;;;;;;;11.98;8.55;;;;;;;;;;5053127;28;20021;-68
2022/06/07 04:57:52;;;;;;;15.15;8.27;;;;;;;;;;5053155;28;20105;-68
2022/06/07 05:00:19;;;;;;;10.90;7.90;;;;;;;;;;5053164;28;20104;-67
2022/06/07 05:02:46;;;;;;;10.45;7.15;;;;;;;;;;5053106;28;20519;-68
2022/06/07 05:05:13;;;;;;;10.70;7.57;;;;;;;;;;5053097;28;20032;-67
2022/06/07 05:07:39;;;;;;;11.52;7.68;;;;;;;;;;5052828;28;20127;-67
2022/06/07 05:10:12;;;;;;;11.93;7.72;;;;;;;;;;5052979;28;20025;-68
2022/06/07 05:12:38;;;;;;;12.43;7.00;;;;;;;;;;5052354;28;20029;-68
2022/06/07 05:15:05;;;;;;;10.90;6.60;;;;;;;;;;5051752;28;20074;-68
2022/06/07 05:17:31;;;;;;;9.25;6.20;;;;;;;;;;5052061;28;20037;-68
2022/06/07 05:19:57;;;;;;;8.30;5.75;;;;;;;;;;5052195;28;20132;-68
2022/06/07 05:22:24;;;;;;;8.60;6.22;;;;;;;;;;5052310;28;20029;-68
2022/06/07 05:24:50;;;;;;;10.02;5.82;;;;;;;;;;5052036;28;20041;-68
2022/06/07 05:27:20;;;;;;;8.52;6.10;;;;;;;;;;5052451;28;20064;-69
2022/06/07 05:29:45;;;;;;;7.43;5.50;;;;;;;;;;5052620;28;20025;-68
2022/06/07 05:32:11;;;;;;;11.18;5.40;;;;;;;;;;5052450;28;20032;-70
2022/06/07 05:34:37;;;;;;;7.10;5.60;;;;;;;;;;5051413;28;20043;-68
2022/06/07 05:37:02;;;;;;;6.75;4.82;;;;;;;;;;5052501;28;20108;-68
2022/06/07 05:39:30;;;;;;;7.60;4.50;;;;;;;;;;5052539;28;20442;-68
2022/06/07 05:41:56;;;;;;;8.93;4.55;;;;;;;;;;5052550;28;20052;-67
2022/06/07 05:44:24;;;;;;;5.63;4.28;;;;;;;;;;5051381;28;20036;-68
2022/06/07 05:46:52;;;;;;;7.20;4.20;;;;;;;;;;5051928;28;20382;-68
2022/06/07 05:49:18;;;;;;;5.85;4.20;;;;;;;;;;5051851;28;20017;-68
2022/06/07 05:51:44;;;;;;;7.03;4.05;;;;;;;;;;5050263;28;20108;-68
2022/06/07 05:54:11;;;;;;;9.13;4.05;;;;;;;;;;5052319;28;20100;-68
2022/06/07 05:56:37;;;;;;;4.25;3.08;;;;;;;;;;5052281;28;20029;-67
2022/06/07 05:59:05;;;;;;;5.45;3.38;;;;;;;;;;5051911;28;20047;-68
2022/06/07 06:01:31;;;;;;;5.80;3.42;;;;;;;;;;5052116;28;20159;-68
2022/06/07 06:03:58;;;;;;;4.68;3.20;;;;;;;;;;5052181;28;20033;-68
2022/06/07 06:06:25;;;;;;;5.40;3.03;;;;;;;;;;5052462;28;20082;-67
2022/06/07 06:11:36;;;;;;;6.25;3.17;;;;;;;;;;5052076;28;20027;-69
2022/06/07 06:14:01;;;;;;;3.45;2.92;;;;;;;;;;5051228;28;20057;-68
2022/06/07 06:16:27;;;;;;;6.80;3.15;;;;;;;;;;5051605;28;20017;-66
2022/06/07 06:18:56;;;;;;;4.10;2.58;;;;;;;;;;5051197;28;20029;-66
2022/06/07 06:21:24;;;;;;;7.70;2.70;;;;;;;;;;5051012;28;20029;-66
2022/06/07 06:23:50;;;;;;;5.82;3.75;;;;;;;;;;5051538;28;20064;-67
2022/06/07 06:26:18;;;;;;;4.07;2.90;;;;;;;;;;5055969;28;20378;-67
2022/06/07 06:28:44;;;;;;;3.45;2.85;;;;;;;;;;5055616;28;20021;-68
2022/06/07 06:31:12;;;;;;;3.95;2.72;;;;;;;;;;5055583;28;20055;-69
2022/06/07 06:33:46;;;;;;;6.15;2.83;;;;;;;;;;5055272;28;20021;-67
2022/06/07 06:36:14;;;;;;;3.85;2.78;;;;;;;;;;5055858;28;20520;-67
2022/06/07 06:38:40;;;;;;;7.35;2.60;;;;;;;;;;5055495;28;20021;-67
2022/06/07 06:41:14;;;;;;;5.13;2.78;;;;;;;;;;5055405;28;20024;-67
2022/06/07 06:43:40;;;;;;;3.67;2.20;;;;;;;;;;5055525;28;20024;-67
2022/06/07 06:46:08;;;;;;;4.30;2.42;;;;;;;;;;5055532;28;20032;-67
2022/06/07 06:48:34;;;;;;;3.30;2.00;;;;;;;;;;5055844;28;20028;-67
2022/06/07 06:51:04;;;;;;;3.78;2.25;;;;;;;;;;5055587;28;20025;-66
2022/06/07 06:53:32;;;;;;;4.45;2.10;;;;;;;;;;5055639;28;20094;-67
2022/06/07 06:55:57;;;;;;;3.33;2.10;;;;;;;;;;5054319;28;20108;-67
2022/06/07 06:58:25;;;;;;;3.72;2.70;;;;;;;;;;5055036;28;20111;-67
2022/06/07 07:01:00;;;;;;;3.00;1.98;;;;;;;;;;5054991;28;20575;-66
2022/06/07 07:03:26;;;;;;;2.47;1.92;;;;;;;;;;5054988;28;20029;-67
2022/06/07 07:05:52;;;;;;;4.05;1.90;;;;;;;;;;5054719;28;20052;-67
2022/06/07 07:08:18;;;;;;;3.85;2.63;;;;;;;;;;5055284;28;20084;-67
2022/06/07 07:10:43;;;;;;;2.97;1.90;;;;;;;;;;5054755;28;20033;-66
2022/06/07 07:13:09;;;;;;;3.10;2.00;;;;;;;;;;5054806;28;20520;-67
2022/06/07 07:15:35;;;;;;;2.85;2.00;;;;;;;;;;5055240;28;20489;-67
2022/06/07 07:18:01;;;;;;;3.38;2.15;;;;;;;;;;5054889;28;20079;-68
2022/06/07 07:20:27;;;;;;;4.68;2.28;;;;;;;;;;5054796;28;20029;-66
2022/06/07 07:22:53;;;;;;;3.88;2.20;;;;;;;;;;5053520;28;20025;-69
2022/06/07 07:25:18;;;;;;;3.00;2.25;;;;;;;;;;5054787;28;20036;-68
2022/06/07 07:27:44;;;;;;;3.25;1.90;;;;;;;;;;5054702;28;20064;-68
2022/06/07 07:30:10;;;;;;;3.13;2.30;;;;;;;;;;5054280;28;20075;-67
2022/06/07 07:32:36;;;;;;;4.85;2.40;;;;;;;;;;5045514;28;20031;-67
2022/06/07 07:35:01;;;;;;;5.25;2.78;;;;;;;;;;5054262;28;20390;-68
2022/06/07 07:37:27;;;;;;;9.38;2.78;;;;;;;;;;5054048;28;20029;-68
2022/06/07 07:39:53;;;;;;;3.60;2.90;;;;;;;;;;5054490;28;20134;-68
2022/06/07 07:42:19;;;;;;;6.68;3.30;;;;;;;;;;5054542;28;20087;-68
2022/06/07 07:44:44;;;;;;;10.63;3.20;;;;;;;;;;5054723;28;20478;-68
2022/06/07 07:47:10;;;;;;;6.30;3.42;;;;;;;;;;5054397;28;20025;-68
2022/06/07 07:49:35;;;;;;;8.75;3.90;;;;;;;;;;5054388;28;20025;-68
2022/06/07 07:52:01;;;;;;;5.10;3.50;;;;;;;;;;5054429;28;20049;-68
2022/06/07 07:54:28;;;;;;;5.10;3.30;;;;;;;;;;5054251;28;20021;-68
2022/06/07 07:56:55;;;;;;;7.00;3.22;;;;;;;;;;5054411;28;20017;-68
2022/06/07 07:59:21;;;;;;;5.95;3.00;;;;;;;;;;5052117;28;20039;-68
2022/06/07 08:01:49;;;;;;;6.55;3.05;;;;;;;;;;5054688;28;20024;-68
2022/06/07 08:04:15;;;;;;;5.05;3.17;;;;;;;;;;5053364;28;20021;-65
2022/06/07 08:06:41;;;;;;;5.18;3.17;;;;;;;;;;5054359;28;20104;-66
2022/06/07 08:09:08;;;;;;;5.20;2.92;;;;;;;;;;5054518;28;20053;-66
2022/06/07 08:11:36;;;;;;;3.72;3.10;;;;;;;;;;5054471;28;20029;-66
2022/06/07 08:14:08;;;;;;;5.25;2.90;;;;;;;;;;5054248;28;20025;-66
2022/06/07 08:16:35;;;;;;;4.18;2.90;;;;;;;;;;5054467;28;20107;-66
2022/06/07 08:19:00;;;;;;;4.45;2.53;;;;;;;;;;5047369;28;20032;-65
2022/06/07 08:21:28;;;;;;;4.53;2.72;;;;;;;;;;5054341;28;20025;-65
2022/06/07 08:23:55;;;;;;;3.40;2.30;;;;;;;;;;5053908;28;20091;-67
2022/06/07 08:26:23;;;;;;;7.07;2.70;;;;;;;;;;5054173;28;20032;-67
2022/06/07 08:28:49;;;;;;;5.47;2.40;;;;;;;;;;5054078;28;20078;-67
2022/06/07 08:31:17;;;;;;;4.55;2.50;;;;;;;;;;5054246;28;20021;-67
2022/06/07 08:39:11;;;;;;;4.53;2.42;;;;;;;;;;5054124;28;20082;-67
2022/06/07 08:41:49;;;;;;;4.80;2.75;;;;;;;;;;5053853;28;20029;-67
2022/06/07 08:44:23;;;;;;;5.78;2.20;;;;;;;;;;5053880;28;20107;-67
2022/06/07 08:46:53;;;;;;;4.00;2.25;;;;;;;;;;5053974;28;20036;-67
2022/06/07 08:49:18;;;;;;;4.93;3.17;;;;;;;;;;5052904;28;20034;-67
2022/06/07 08:51:51;;;;;;;7.15;2.47;;;;;;;;;;5053678;28;20112;-68
2022/06/07 08:54:25;;;;;;;4.88;2.35;;;;;;;;;;5053550;28;20537;-66
2022/06/07 08:56:51;;;;;;;3.83;2.30;;;;;;;;;;5053743;28;20455;-67
2022/06/07 08:59:19;;;;;;;2.97;1.90;;;;;;;;;;5053637;28;20029;-67
2022/06/07 09:02:03;;;;;;;3.72;2.00;;;;;;;;;;5053422;28;20504;-67
2022/06/07 09:04:31;;;;;;;4.78;2.00;;;;;;;;;;5053610;28;20052;-67
2022/06/07 09:07:05;;;;;;;6.55;1.83;;;;;;;;;;5053598;28;20421;-67
2022/06/07 09:12:24;;;;;;;4.68;2.00;;;;;;;;;;5051858;28;20052;-67
2022/06/07 09:15:10;;;;;;;4.78;1.95;;;;;;;;;;5053547;28;20029;-67
2022/06/07 09:17:41;;;;;;;4.28;1.85;;;;;;;;;;5053017;28;20041;-67
2022/06/07 09:20:14;;;;;;;5.15;1.63;;;;;;;;;;5053189;28;20075;-67
2022/06/07 09:22:48;;;;;;;2.88;1.67;;;;;;;;;;5053121;28;20040;-67
2022/06/07 09:25:21;;;;;;;3.30;1.85;;;;;;;;;;5053070;28;20127;-66
2022/06/07 09:27:47;;;;;;;2.33;1.38;;;;;;;;;;5052921;28;20103;-66
2022/06/07 09:30:15;;;;;;;2.70;1.60;;;;;;;;;;5052887;28;20113;-66
2022/06/07 09:32:41;;;;;;;1.85;1.35;;;;;;;;;;5053014;28;20464;-66
2022/06/07 09:35:14;;;;;;;2.38;1.33;;;;;;;;;;5053057;28;20024;-67
2022/06/07 09:37:56;;;;;;;4.05;1.60;;;;;;;;;;5053034;28;20494;-67
2022/06/07 09:40:32;;;;;;;2.00;1.45;;;;;;;;;;5052915;28;20031;-68
2022/06/07 09:43:13;;;;;;;4.43;1.50;;;;;;;;;;5052956;28;20029;-67
2022/06/07 09:45:46;;;;;;;3.30;1.40;;;;;;;;;;5052731;28;20471;-67
2022/06/07 09:48:27;;;;;;;2.55;1.10;;;;;;;;;;5052722;28;20029;-67
2022/06/07 09:51:00;;;;;;;4.35;1.40;;;;;;;;;;5052524;28;20033;-67
2022/06/07 09:53:34;;;;;;;3.15;1.30;;;;;;;;;;5052860;28;20072;-67
2022/06/07 09:56:12;;;;;;;4.03;1.20;;;;;;;;;;5052560;28;20386;-67
2022/06/07 09:58:41;;;;;;;2.03;0.95;;;;;;;;;;5052601;28;20016;-66
2022/06/07 10:01:15;;;;;;;4.40;1.27;;;;;;;;;;5052366;28;20049;-66
2022/06/07 10:03:55;;;;;;;2.15;1.35;;;;;;;;;;5052597;28;20040;-66
2022/06/07 10:06:34;;;;;;;4.88;1.10;;;;;;;;;;5052431;28;20087;-66
2022/06/07 10:09:06;;;;;;;4.20;1.40;;;;;;;;;;5052409;28;20025;-66
2022/06/07 10:11:50;;;;;;;2.35;1.40;;;;;;;;;;5052586;28;20056;-66
2022/06/07 10:14:22;;;;;;;3.28;1.15;;;;;;;;;;5052375;28;20483;-67
2022/06/07 10:17:09;;;;;;;4.18;1.60;;;;;;;;;;5052315;28;20083;-66
2022/06/07 10:19:56;;;;;;;3.63;1.33;;;;;;;;;;5051923;28;20076;-68
2022/06/07 10:22:52;;;;;;;1.85;1.10;;;;;;;;;;5052224;28;20021;-66
2022/06/07 10:25:26;;;;;;;2.33;1.20;;;;;;;;;;5052188;28;20136;-68
2022/06/07 10:28:00;;;;;;;2.05;1.15;;;;;;;;;;5052041;28;20540;-66
2022/06/07 10:30:39;;;;;;;1.42;1.00;;;;;;;;;;5052290;28;20096;-68
2022/06/07 10:33:11;;;;;;;2.35;1.30;;;;;;;;;;5051640;28;20426;-68
2022/06/07 10:35:55;;;;;;;1.52;1.20;;;;;;;;;;5052077;28;20033;-69
2022/06/07 10:38:45;;;;;;;1.83;1.15;;;;;;;;;;5052246;28;20086;-68
2022/06/07 10:41:41;;;;;;;4.20;1.02;;;;;;;;;;5052243;28;20025;-71
2022/06/07 10:44:13;;;;;;;2.10;1.23;;;;;;;;;;5050633;28;20548;-68
2022/06/07 10:46:41;;;;;;;6.18;1.30;;;;;;;;;;5052188;28;20036;-70
2022/06/07 10:49:39;;;;;;;3.22;1.10;;;;;;;;;;5052054;28;20502;-68
2022/06/07 10:52:31;;;;;;;4.18;1.10;;;;;;;;;;5052103;28;20474;-67
2022/06/07 10:55:14;;;;;;;1.75;0.95;;;;;;;;;;5051124;28;20025;-68
2022/06/07 10:58:00;;;;;;;1.40;0.90;;;;;;;;;;5051971;28;20029;-68
2022/06/07 11:00:32;;;;;;;6.22;1.50;;;;;;;;;;5052211;28;20037;-68
2022/06/07 11:03:28;;;;;;;3.88;1.40;;;;;;;;;;5051845;28;20036;-65
2022/06/07 11:09:21;;;;;;;5.30;1.30;;;;;;;;;;5052076;28;20040;-68
2022/06/07 11:11:56;;;;;;;4.20;1.17;;;;;;;;;;5052966;28;20112;-68
2022/06/07 11:14:21;;;;;;;2.72;1.70;;;;;;;;;;5054949;28;20059;-67
2022/06/07 11:16:53;;;;;;;3.58;1.15;;;;;;;;;;5055842;28;20054;-67
2022/06/07 11:19:19;;;;;;;2.78;1.15;;;;;;;;;;5055126;28;20021;-66
2022/06/07 11:21:47;;;;;;;2.38;1.50;;;;;;;;;;5055400;28;20036;-67
2022/06/07 11:24:33;;;;;;;7.30;1.20;;;;;;;;;;5055472;28;20048;-68
2022/06/07 11:27:07;;;;;;;2.55;1.40;;;;;;;;;;5055593;28;20033;-67
2022/06/07 11:29:33;;;;;;;3.20;1.20;;;;;;;;;;5055238;28;20367;-66
2022/06/07 11:32:02;;;;;;;2.30;1.23;;;;;;;;;;5055028;28;20099;-67
2022/06/07 11:34:35;;;;;;;2.20;0.98;;;;;;;;;;5055301;28;20103;-67
2022/06/07 11:37:07;;;;;;;2.60;1.10;;;;;;;;;;5055272;28;20029;-68
2022/06/07 11:39:39;;;;;;;2.00;1.20;;;;;;;;;;5054931;28;20047;-67
2022/06/07 11:42:07;;;;;;;2.90;1.30;;;;;;;;;;5054926;28;20443;-67
2022/06/07 11:44:45;;;;;;;2.22;1.00;;;;;;;;;;5055203;28;20033;-67
2022/06/07 11:47:11;;;;;;;1.63;1.23;;;;;;;;;;5055058;28;20033;-66
2022/06/07 11:49:46;;;;;;;2.40;1.10;;;;;;;;;;5055145;28;20024;-67
2022/06/07 11:52:11;;;;;;;3.42;1.00;;;;;;;;;;5054791;28;20115;-67
2022/06/07 11:54:53;;;;;;;2.67;1.27;;;;;;;;;;5054526;28;20071;-68
2022/06/07 11:57:56;;;;;;;1.70;1.17;;;;;;;;;;5055241;28;20021;-68
2022/06/07 12:00:22;;;;;;;3.38;1.30;;;;;;;;;;5054373;28;20040;-68
2022/06/07 12:03:08;;;;;;;4.28;1.33;;;;;;;;;;5054758;28;20033;-67
2022/06/07 12:05:53;;;;;;;2.35;1.10;;;;;;;;;;5054972;28;20057;-68
2022/06/07 12:08:47;;;;;;;5.78;1.23;;;;;;;;;;5054744;28;20055;-68
2022/06/07 12:11:21;;;;;;;1.85;0.95;;;;;;;;;;5054661;28;20025;-67
2022/06/07 12:13:56;;;;;;;3.58;1.10;;;;;;;;;;5054675;28;20037;-68
2022/06/07 12:16:37;;;;;;;4.93;1.33;;;;;;;;;;5054105;28;20116;-67
2022/06/07 12:19:05;;;;;;;3.80;1.23;;;;;;;;;;5054155;28;20025;-68
2022/06/07 12:21:42;;;;;;;2.05;0.90;;;;;;;;;;5054413;28;20047;-68
2022/06/07 12:24:15;;;;;;;2.78;1.25;;;;;;;;;;5053907;28;20505;-68
2022/06/07 12:26:45;;;;;;;1.92;1.00;;;;;;;;;;5054123;28;20497;-67
2022/06/07 12:29:11;;;;;;;3.45;1.20;;;;;;;;;;5054479;28;20033;-68
2022/06/07 12:32:04;;;;;;;2.80;1.00;;;;;;;;;;5054085;28;20033;-67
2022/06/07 12:34:33;;;;;;;4.57;1.00;;;;;;;;;;5054170;28;20025;-68
2022/06/07 12:37:14;;;;;;;2.05;0.90;;;;;;;;;;5054362;28;20104;-68
2022/06/07 12:39:47;;;;;;;1.70;0.90;;;;;;;;;;5053011;28;20104;-68
2022/06/07 12:42:15;;;;;;;2.97;1.00;;;;;;;;;;5053206;28;20025;-67
2022/06/07 12:44:50;;;;;;;1.65;1.05;;;;;;;;;;5053946;28;20044;-66
2022/06/07 12:47:31;;;;;;;4.38;1.35;;;;;;;;;;5054054;28;20025;-68
2022/06/07 12:49:57;;;;;;;2.90;1.27;;;;;;;;;;5054038;28;20506;-67
2022/06/07 12:52:28;;;;;;;1.83;1.00;;;;;;;;;;5052870;28;20064;-67
2022/06/07 12:55:00;;;;;;;2.72;1.30;;;;;;;;;;5037412;28;20034;-67
2022/06/07 12:57:33;;;;;;;7.10;1.58;;;;;;;;;;5030229;28;20605;-67
2022/06/07 13:00:24;;;;;;;3.50;1.33;;;;;;;;;;5029603;28;20029;-68
2022/06/07 13:03:12;;;;;;;2.60;1.10;;;;;;;;;;5028371;28;20033;-67
2022/06/07 13:05:38;;;;;;;1.75;0.98;;;;;;;;;;5025703;28;20471;-67
2022/06/07 13:08:18;;;;;;;2.13;1.00;;;;;;;;;;5029325;28;20032;-67
2022/06/07 13:10:44;;;;;;;4.47;1.30;;;;;;;;;;5029635;28;20053;-67
2022/06/07 13:13:23;;;;;;;4.25;1.17;;;;;;;;;;5029478;28;20512;-67
2022/06/07 13:16:01;;;;;;;2.55;1.15;;;;;;;;;;5029459;28;20038;-67
2022/06/07 13:18:37;;;;;;;6.60;1.42;;;;;;;;;;5038451;28;20036;-68
2022/06/07 13:21:14;;;;;;;2.55;1.25;;;;;;;;;;5048826;28;20025;-66
2022/06/07 13:23:42;;;;;;;5.07;1.38;;;;;;;;;;5049110;28;20486;-66
2022/06/07 13:26:16;;;;;;;5.38;1.38;;;;;;;;;;5049034;28;20398;-67
2022/06/07 13:28:43;;;;;;;1.70;1.05;;;;;;;;;;5049005;28;20106;-66
2022/06/07 13:31:42;;;;;;;6.50;1.42;;;;;;;;;;5049169;28;20086;-66
2022/06/07 13:34:36;;;;;;;6.38;1.85;;;;;;;;;;5048324;28;20029;-66
2022/06/07 13:37:13;;;;;;;2.38;1.30;;;;;;;;;;5045855;28;20047;-66
2022/06/07 13:39:59;;;;;;;5.05;1.30;;;;;;;;;;5048639;28;20029;-66
2022/06/07 13:42:33;;;;;;;5.43;1.33;;;;;;;;;;5048644;28;20172;-66
2022/06/07 13:45:12;;;;;;;2.20;1.40;;;;;;;;;;5048559;28;20040;-66
2022/06/07 13:47:50;;;;;;;4.05;1.73;;;;;;;;;;5048417;28;20029;-66
2022/06/07 13:53:26;;;;;;;3.97;1.58;;;;;;;;;;5048579;28;20047;-67
2022/06/07 13:56:04;;;;;;;3.95;1.50;;;;;;;;;;5048839;28;20033;-66
2022/06/07 13:58:38;;;;;;;3.05;1.23;;;;;;;;;;5048027;28;20121;-69
2022/06/07 14:01:15;;;;;;;3.05;1.50;;;;;;;;;;5048483;28;20029;-66
2022/06/07 14:03:53;;;;;;;3.70;1.50;;;;;;;;;;5048200;28;20045;-66
2022/06/07 14:06:24;;;;;;;3.67;1.60;;;;;;;;;;5048034;28;20060;-67
2022/06/07 14:08:52;;;;;;;2.95;1.33;;;;;;;;;;5048465;28;20137;-67
2022/06/07 14:11:17;;;;;;;3.00;1.70;;;;;;;;;;5048055;28;20396;-66
2022/06/07 14:13:44;;;;;;;5.07;1.50;;;;;;;;;;5048375;28;20630;-66
2022/06/07 14:16:15;;;;;;;8.93;1.80;;;;;;;;;;5048371;28;20443;-66
2022/06/07 14:18:42;;;;;;;1.63;1.40;;;;;;;;;;5048300;28;20113;-66
2022/06/07 14:21:08;;;;;;;7.05;1.60;;;;;;;;;;5048013;28;20078;-67
2022/06/07 14:23:34;;;;;;;5.22;1.50;;;;;;;;;;5048051;28;20497;-66
2022/06/07 14:25:59;;;;;;;3.97;1.55;;;;;;;;;;5047810;28;20025;-67
2022/06/07 14:28:25;;;;;;;4.72;1.40;;;;;;;;;;5048409;28;20029;-67
2022/06/07 14:30:53;;;;;;;1.95;1.23;;;;;;;;;;5047638;28;20132;-67
2022/06/07 14:33:21;;;;;;;2.83;1.40;;;;;;;;;;5048167;28;20035;-67
2022/06/07 14:35:48;;;;;;;6.38;1.70;;;;;;;;;;5048116;28;20100;-67
2022/06/07 14:38:16;;;;;;;4.93;1.77;;;;;;;;;;5048100;28;20118;-67
2022/06/07 14:40:43;;;;;;;3.13;1.60;;;;;;;;;;5047895;28;20033;-67
2022/06/07 14:43:14;;;;;;;4.18;1.52;;;;;;;;;;5048183;28;20096;-67
2022/06/07 14:45:53;;;;;;;2.88;1.50;;;;;;;;;;5035146;28;20022;-67
2022/06/07 14:48:29;;;;;;;2.13;1.30;;;;;;;;;;5032171;28;20033;-67
2022/06/07 14:50:55;;;;;;;2.90;1.58;;;;;;;;;;5032351;28;20029;-68
2022/06/07 14:53:21;;;;;;;5.63;1.65;;;;;;;;;;5032359;28;20039;-68
2022/06/07 14:55:47;;;;;;;3.78;2.20;;;;;;;;;;5032017;28;20025;-67
2022/06/07 14:58:13;;;;;;;2.95;1.30;;;;;;;;;;5032327;28;20117;-67
2022/06/07 15:00:39;;;;;;;3.35;1.42;;;;;;;;;;5031345;28;20068;-67
2022/06/07 15:03:06;;;;;;;3.30;1.40;;;;;;;;;;5032096;28;20036;-68
2022/06/07 15:05:36;;;;;;;4.35;1.40;;;;;;;;;;5031572;28;20057;-67
2022/06/07 15:08:06;;;;;;;2.47;1.30;;;;;;;;;;5032004;28;20029;-67
2022/06/07 15:10:38;;;;;;;1.90;1.20;;;;;;;;;;5031662;28;20033;-67
2022/06/07 15:13:18;;;;;;;2.30;1.20;;;;;;;;;;5030289;28;20314;-67
2022/06/07 15:15:44;;;;;;;3.63;1.50;;;;;;;;;;5032075;28;20021;-67
2022/06/07 15:18:15;;;;;;;2.42;1.58;;;;;;;;;;5032186;28;20103;-67
2022/06/07 15:20:41;;;;;;;3.08;1.23;;;;;;;;;;5051822;28;20032;-67